Time;durP1;ratioP1;P1;durP2;ratioP2;P2;SDS_P1;SDS_P2;PMS_P1;PMS_P2;Temp;Humidity;BMP_temperature;BMP_pressure;BME280_temperature;BME280_humidity;BME280_pressure;Samples;Min_cycle;Max_cycle;Signal;HPM_P1;HPM_P2
2023/06/01 00:02:03;;;;;;;;;;;;;;;12.09;58.14;101240.50;108784;1257;72665;-82
2023/06/01 00:04:30;;;;;;;;;;;;;;;12.07;58.38;101238.00;108959;1256;58482;-82
2023/06/01 00:07:01;;;;;;;;;;;;;;;12.06;58.53;101237.08;108702;1257;124555;-82
2023/06/01 00:09:28;;;;;;;;;;;;;;;12.04;58.68;101232.46;108761;1257;73150;-82
2023/06/01 00:11:55;;;;;;;;;;;;;;;12.03;58.83;101232.08;108847;1257;124079;-83
2023/06/01 00:14:22;;;;;;;;;;;;;;;12.02;59.07;101229.41;108937;1260;71350;-83
2023/06/01 00:16:48;;;;;;;;;;;;;;;11.99;59.28;101221.95;108662;1272;124236;-82
2023/06/01 00:19:15;;;;;;;;;;;;;;;11.98;59.42;101222.27;108851;1257;58608;-83
2023/06/01 00:21:42;;;;;;;;;;;;;;;11.96;59.51;101216.75;108841;1256;74537;-82
2023/06/01 00:24:09;;;;;;;;;;;;;;;11.94;59.63;101216.52;108732;1261;124518;-82
2023/06/01 00:26:36;;;;;;;;;;;;;;;11.92;59.93;101217.53;108779;1257;72781;-82
2023/06/01 00:29:03;;;;;;;;;;;;;;;11.91;60.02;101215.20;108780;1256;124461;-82
2023/06/01 00:31:30;;;;;;;;;;;;;;;11.89;60.15;101215.52;108856;1257;58389;-83
2023/06/01 00:33:56;;;;;;;;;;;;;;;11.88;60.26;101211.59;108843;1261;72397;-83
2023/06/01 00:36:23;;;;;;;;;;;;;;;11.88;60.54;101210.71;108742;1257;125453;-83
2023/06/01 00:38:50;;;;;;;;;;;;;;;11.87;60.65;101208.06;108926;1257;71414;-82
2023/06/01 00:41:17;;;;;;;;;;;;;;;11.87;60.70;101205.77;108691;1257;124425;-82
2023/06/01 00:43:44;;;;;;;;;;;;;;;11.86;60.85;101202.94;108949;1257;60134;-82
2023/06/01 00:46:14;;;;;;;;;;;;;;;11.85;60.93;101198.86;108808;1256;72545;-82
2023/06/01 00:48:40;;;;;;;;;;;;;;;11.85;61.12;101199.04;108670;1257;124260;-82
2023/06/01 00:51:07;;;;;;;;;;;;;;;11.85;61.23;101194.27;108864;1257;72794;-82
2023/06/01 00:53:34;;;;;;;;;;;;;;;11.84;61.29;101194.26;108810;1257;124604;-83
2023/06/01 00:56:01;;;;;;;;;;;;;;;11.81;61.35;101192.43;108978;1257;59293;-83
2023/06/01 00:58:28;;;;;;;;;;;;;;;11.81;61.47;101191.88;108751;1257;74239;-83
2023/06/01 01:00:55;;;;;;;;;;;;;;;11.79;61.44;101193.77;108703;1257;124666;-83
2023/06/01 01:03:25;;;;;;;;;;;;;;;11.76;61.50;101190.00;108860;1257;70853;-83
2023/06/01 01:05:57;;;;;;;;;;;;;;;11.74;61.61;101186.96;108721;1257;124307;-82
2023/06/01 01:08:47;;;;;;;;;;;;;;;11.72;61.72;101182.86;108630;1257;60154;-83
2023/06/01 01:11:15;;;;;;;;;;;;;;;11.69;61.78;101178.02;108686;1260;124579;-83
2023/06/01 01:14:06;;;;;;;;;;;;;;;11.65;61.90;101177.23;108790;1256;68030;-82
2023/06/01 01:16:40;;;;;;;;;;;;;;;11.62;61.97;101176.96;108851;1257;71976;-82
2023/06/01 01:19:07;;;;;;;;;;;;;;;11.58;62.02;101174.73;108698;1257;124971;-83
2023/06/01 01:21:35;;;;;;;;;;;;;;;11.55;62.09;101177.80;108962;1257;58883;-82
2023/06/01 01:24:06;;;;;;;;;;;;;;;11.52;62.26;101178.26;108884;1259;124539;-82
2023/06/01 01:26:55;;;;;;;;;;;;;;;11.48;62.43;101177.45;108873;1257;65593;-83
2023/06/01 01:29:23;;;;;;;;;;;;;;;11.46;62.50;101177.21;108694;1256;124675;-82
2023/06/01 01:31:50;;;;;;;;;;;;;;;11.43;62.61;101178.19;108909;1259;58332;-83
2023/06/01 01:34:17;;;;;;;;;;;;;;;11.40;62.83;101180.21;108772;1257;58662;-82
2023/06/01 01:36:44;;;;;;;;;;;;;;;11.37;62.92;101177.30;108739;1257;124598;-82
2023/06/01 01:39:11;;;;;;;;;;;;;;;11.33;63.02;101171.73;108947;1260;66398;-82
2023/06/01 01:41:38;;;;;;;;;;;;;;;11.29;63.09;101175.14;108759;1260;124642;-82
2023/06/01 01:44:05;;;;;;;;;;;;;;;11.24;63.16;101172.73;108998;1256;58305;-82
2023/06/01 01:46:36;;;;;;;;;;;;;;;11.20;63.36;101168.91;108930;1257;60127;-82
2023/06/01 01:49:15;;;;;;;;;;;;;;;11.16;63.51;101169.35;108722;1256;124803;-82
2023/06/01 01:51:49;;;;;;;;;;;;;;;11.13;63.99;101162.38;108856;1255;68098;-82
2023/06/01 01:54:17;;;;;;;;;;;;;;;11.09;64.15;101162.79;108896;1257;124189;-83
2023/06/01 01:56:44;;;;;;;;;;;;;;;11.06;64.40;101162.70;108895;1257;58770;-83
2023/06/01 01:59:11;;;;;;;;;;;;;;;11.02;64.48;101168.56;108673;1257;125252;-82
2023/06/01 02:01:41;;;;;;;;;;;;;;;10.98;64.68;101167.58;108760;1256;74942;-82
2023/06/01 02:04:08;;;;;;;;;;;;;;;10.97;64.78;101169.46;108670;1273;67452;-83
2023/06/01 02:06:36;;;;;;;;;;;;;;;10.94;64.85;101173.42;108800;1258;125478;-83
2023/06/01 02:09:06;;;;;;;;;;;;;;;10.93;64.90;101170.23;108820;1256;58991;-83
2023/06/01 02:11:33;;;;;;;;;;;;;;;10.92;64.93;101170.20;108571;1257;125652;-83
2023/06/01 02:14:01;;;;;;;;;;;;;;;10.92;65.04;101172.11;108676;1257;74449;-83
2023/06/01 02:16:27;;;;;;;;;;;;;;;10.92;64.99;101170.70;108773;1257;66461;-82
2023/06/01 02:18:57;;;;;;;;;;;;;;;10.91;65.04;101169.10;108682;1257;124722;-83
2023/06/01 02:21:24;;;;;;;;;;;;;;;10.90;65.15;101164.01;108951;1260;59259;-83
2023/06/01 02:23:51;;;;;;;;;;;;;;;10.91;65.24;101161.90;108706;1257;124677;-82
2023/06/01 02:26:18;;;;;;;;;;;;;;;10.90;65.37;101161.02;108858;1260;73883;-83
2023/06/01 02:28:46;;;;;;;;;;;;;;;10.92;65.40;101156.14;108637;1263;65664;-83
2023/06/01 02:31:14;;;;;;;;;;;;;;;10.93;65.41;101154.92;108739;1257;72865;-82
2023/06/01 02:33:41;;;;;;;;;;;;;;;10.96;65.37;101156.44;108926;1260;58567;-82
2023/06/01 02:36:08;;;;;;;;;;;;;;;10.97;65.53;101153.66;108826;1257;125828;-82
2023/06/01 02:38:35;;;;;;;;;;;;;;;10.99;65.51;101152.84;108813;1262;74624;-82
2023/06/01 02:41:02;;;;;;;;;;;;;;;11.00;65.49;101150.60;108689;1258;125299;-82
2023/06/01 02:43:29;;;;;;;;;;;;;;;11.02;65.53;101152.95;108873;1258;72841;-82
2023/06/01 02:45:56;;;;;;;;;;;;;;;11.05;65.60;101151.97;108759;1262;58651;-82
2023/06/01 02:48:23;;;;;;;;;;;;;;;11.07;65.65;101150.47;108678;1262;126568;-82
2023/06/01 02:50:50;;;;;;;;;;;;;;;11.10;65.66;101148.25;108740;1262;73591;-82
2023/06/01 02:53:17;;;;;;;;;;;;;;;11.13;65.62;101147.29;108785;1273;125152;-82
2023/06/01 02:55:44;;;;;;;;;;;;;;;11.16;65.72;101148.23;108872;1262;71419;-82
2023/06/01 02:58:16;;;;;;;;;;;;;;;11.20;65.73;101144.52;108780;1258;58678;-81
2023/06/01 03:00:43;;;;;;;;;;;;;;;11.27;65.76;101139.27;108717;1257;125180;-82
2023/06/01 03:03:10;;;;;;;;;;;;;;;11.33;65.70;101130.46;108868;1257;74105;-82
2023/06/01 03:05:37;;;;;;;;;;;;;;;11.41;65.74;101127.67;108668;1257;124586;-82
2023/06/01 03:08:06;;;;;;;;;;;;;;;11.47;65.72;101130.30;108820;1257;71348;-82
2023/06/01 03:10:33;;;;;;;;;;;;;;;11.54;65.75;101125.42;108749;1263;58881;-81
2023/06/01 03:13:00;;;;;;;;;;;;;;;11.65;65.74;101124.13;108941;1256;125638;-82
2023/06/01 03:15:27;;;;;;;;;;;;;;;11.78;65.76;101123.57;108874;1256;74365;-82
2023/06/01 03:17:54;;;;;;;;;;;;;;;11.91;65.72;101115.85;108727;1256;125733;-82
2023/06/01 03:20:21;;;;;;;;;;;;;;;12.05;65.68;101113.39;108946;1255;72664;-82
2023/06/01 03:22:48;;;;;;;;;;;;;;;12.24;65.85;101107.52;108752;1260;58685;-82
2023/06/01 03:25:16;;;;;;;;;;;;;;;12.99;67.15;101104.41;108932;1256;58508;-81
2023/06/01 03:27:43;;;;;;;;;;;;;;;14.63;67.63;101092.80;108999;1257;73334;-82
2023/06/01 03:30:10;;;;;;;;;;;;;;;16.33;66.12;101086.66;108795;1257;124785;-82
2023/06/01 03:32:37;;;;;;;;;;;;;;;17.35;63.23;101079.73;108827;1257;73110;-83
2023/06/01 03:35:07;;;;;;;;;;;;;;;17.56;60.86;101079.42;108758;1257;125666;-83
2023/06/01 03:37:34;;;;;;;;;;;;;;;17.34;59.66;101081.16;108930;1258;59106;-83
2023/06/01 03:40:10;;;;;;;;;;;;;;;17.34;59.81;101077.42;108751;1257;72802;-83
2023/06/01 03:42:41;;;;;;;;;;;;;;;17.58;59.04;101077.30;108886;1258;123831;-82
2023/06/01 03:45:08;;;;;;;;;;;;;;;17.61;58.25;101076.23;108845;1257;72563;-82
2023/06/01 03:47:35;;;;;;;;;;;;;;;18.02;58.81;101077.31;108704;1257;123971;-83
2023/06/01 03:50:03;;;;;;;;;;;;;;;19.40;59.25;101069.41;108883;1260;59613;-83
2023/06/01 03:52:30;;;;;;;;;;;;;;;21.36;58.11;101059.75;108931;1257;72638;-83
2023/06/01 03:54:57;;;;;;;;;;;;;;;23.20;55.67;101062.18;108861;1257;125692;-83
2023/06/01 03:57:24;;;;;;;;;;;;;;;24.80;53.52;101055.27;108803;1260;71175;-83
2023/06/01 03:59:51;;;;;;;;;;;;;;;26.32;51.42;101053.32;108702;1256;124949;-83
2023/06/01 04:02:18;;;;;;;;;;;;;;;27.66;48.86;101049.48;108949;1260;58795;-83
2023/06/01 04:04:46;;;;;;;;;;;;;;;28.72;46.75;101045.44;108838;1256;73880;-82
2023/06/01 04:07:14;;;;;;;;;;;;;;;29.73;44.96;101047.16;108771;1257;125660;-82
2023/06/01 04:09:41;;;;;;;;;;;;;;;30.68;43.11;101047.86;108791;1261;72290;-82
2023/06/01 04:12:09;;;;;;;;;;;;;;;31.37;41.58;101047.09;108738;1257;124515;-80
2023/06/01 04:14:36;;;;;;;;;;;;;;;32.13;40.15;101040.33;108988;1256;59517;-83
2023/06/01 04:17:03;;;;;;;;;;;;;;;32.84;38.82;101039.15;108764;1257;124275;-83
2023/06/01 04:19:30;;;;;;;;;;;;;;;33.57;37.50;101035.58;108804;1260;58445;-83
2023/06/01 04:21:57;;;;;;;;;;;;;;;34.21;36.20;101037.20;109010;1257;64021;-83
2023/06/01 04:24:24;;;;;;;;;;;;;;;34.70;35.01;101036.52;108936;1257;124471;-78
2023/06/01 04:26:51;;;;;;;;;;;;;;;35.24;34.18;101031.65;108991;1257;59194;-79
2023/06/01 04:29:19;;;;;;;;;;;;;;;35.77;33.18;101027.73;108885;1256;124462;-76
2023/06/01 04:31:46;;;;;;;;;;;;;;;36.22;32.27;101020.26;108907;1257;58686;-78
2023/06/01 04:34:13;;;;;;;;;;;;;;;36.57;31.44;101016.33;109021;1256;64583;-79
2023/06/01 04:36:40;;;;;;;;;;;;;;;36.97;30.72;101014.91;108931;1254;125854;-78
2023/06/01 04:39:07;;;;;;;;;;;;;;;37.37;29.78;101013.32;108948;1256;58190;-81
2023/06/01 04:41:37;;;;;;;;;;;;;;;37.64;29.12;101018.00;108875;1257;123953;-84
2023/06/01 04:44:08;;;;;;;;;;;;;;;37.85;28.82;101017.28;108810;1261;58748;-84
2023/06/01 04:46:39;;;;;;;;;;;;;;;38.20;28.18;101017.02;108777;1257;64177;-85
2023/06/01 04:49:06;;;;;;;;;;;;;;;38.63;27.64;101017.08;108836;1267;124595;-85
2023/06/01 04:51:36;;;;;;;;;;;;;;;39.21;26.96;101015.67;108830;1257;58484;-85
2023/06/01 04:54:04;;;;;;;;;;;;;;;39.58;26.21;101011.19;108950;1257;124700;-87
2023/06/01 04:56:31;;;;;;;;;;;;;;;39.72;25.79;101008.98;108974;1257;58538;-89
2023/06/01 04:59:00;;;;;;;;;;;;;;;40.01;25.40;101008.80;108978;1257;124561;-87
2023/06/01 05:01:29;;;;;;;;;;;;;;;40.47;25.00;101006.05;108972;1258;58796;-83
2023/06/01 05:03:56;;;;;;;;;;;;;;;40.64;24.24;101004.56;108821;1261;58501;-86
2023/06/01 05:06:24;;;;;;;;;;;;;;;40.58;23.80;101000.79;108913;1257;124637;-88
2023/06/01 05:08:51;;;;;;;;;;;;;;;40.64;23.73;100999.84;108864;1258;59184;-87
2023/06/01 05:11:18;;;;;;;;;;;;;;;41.12;23.67;101000.95;108536;1257;124149;-87
2023/06/01 05:13:45;;;;;;;;;;;;;;;41.58;22.96;100999.61;109026;1257;58246;-89
2023/06/01 05:16:21;;;;;;;;;;;;;;;41.76;22.52;101001.67;104845;1260;5436031;-87
2023/06/01 05:18:52;;;;;;;;;;;;;;;41.79;22.35;101005.16;108450;1260;125065;-93
2023/06/01 05:21:22;;;;;;;;;;;;;;;42.12;22.11;101009.14;108873;1257;64194;-85
2023/06/01 05:23:49;;;;;;;;;;;;;;;42.43;21.67;101012.89;108808;1256;125369;-84
2023/06/01 05:26:16;;;;;;;;;;;;;;;42.51;21.16;101015.20;108895;1257;58583;-85
2023/06/01 05:28:43;;;;;;;;;;;;;;;42.34;20.87;101010.16;108994;1256;65352;-84
2023/06/01 05:31:10;;;;;;;;;;;;;;;42.30;20.71;101010.55;108715;1256;125374;-85
2023/06/01 05:33:36;;;;;;;;;;;;;;;42.00;20.40;101008.70;108776;1257;62875;-85
2023/06/01 05:36:07;;;;;;;;;;;;;;;41.49;20.41;101003.65;108872;1256;124035;-85
2023/06/01 05:38:33;;;;;;;;;;;;;;;40.12;20.04;101003.48;108953;1257;58631;-83
2023/06/01 05:41:00;;;;;;;;;;;;;;;37.28;20.40;100999.94;108932;1255;124562;-82
2023/06/01 05:44:03;;;;;;;;;;;;;;;34.61;21.71;100998.02;109013;1256;58611;-82
2023/06/01 05:46:30;;;;;;;;;;;;;;;32.14;23.21;100997.07;107537;1263;64137;-83
2023/06/01 05:48:57;;;;;;;;;;;;;;;30.49;24.43;100995.38;107725;1261;125792;-83
2023/06/01 05:51:27;;;;;;;;;;;;;;;28.98;25.51;100992.90;107219;1257;60357;-83
2023/06/01 05:53:54;;;;;;;;;;;;;;;27.78;26.85;100998.30;107119;1257;137496;-83
2023/06/01 05:56:21;;;;;;;;;;;;;;;26.82;27.82;101000.89;107501;1256;68443;-83
2023/06/01 05:58:52;;;;;;;;;;;;;;;25.98;28.82;100997.13;107363;1257;71591;-83
2023/06/01 06:01:20;;;;;;;;;;;;;;;25.20;29.77;100999.16;107196;1257;60271;-85
2023/06/01 06:03:47;;;;;;;;;;;;;;;24.54;30.63;101000.79;107461;1260;60795;-84
2023/06/01 06:06:15;;;;;;;;;;;;;;;24.01;31.27;100998.64;107426;1258;125566;-86
2023/06/01 06:08:42;;;;;;;;;;;;;;;23.54;31.94;101000.89;107464;1257;67035;-84
2023/06/01 06:11:09;;;;;;;;;;;;;;;23.10;32.80;101001.21;107276;1258;124509;-84
2023/06/01 06:13:36;;;;;;;;;;;;;;;22.78;33.45;101006.01;107571;1256;60447;-84
2023/06/01 06:16:04;;;;;;;;;;;;;;;22.48;34.01;101007.53;107441;1260;59931;-84
2023/06/01 06:18:31;;;;;;;;;;;;;;;22.16;34.56;101007.59;107592;1257;124962;-84
2023/06/01 06:21:00;;;;;;;;;;;;;;;21.85;34.91;101009.39;107664;1259;66881;-86
2023/06/01 06:23:30;;;;;;;;;;;;;;;21.35;35.49;101015.02;107534;1257;125226;-84
2023/06/01 06:25:57;;;;;;;;;;;;;;;21.04;36.08;101015.83;107616;1257;60485;-83
2023/06/01 06:28:24;;;;;;;;;;;;;;;20.92;36.75;101012.77;108075;1257;60246;-84
2023/06/01 06:30:51;;;;;;;;;;;;;;;20.86;37.16;101011.25;107821;1257;124382;-84
2023/06/01 06:33:18;;;;;;;;;;;;;;;20.81;37.58;101010.25;107681;1257;65873;-84
2023/06/01 06:35:44;;;;;;;;;;;;;;;20.72;37.64;101008.77;107328;1260;124218;-84
2023/06/01 06:38:11;;;;;;;;;;;;;;;20.56;37.68;101014.48;107552;1257;58805;-84
2023/06/01 06:40:38;;;;;;;;;;;;;;;20.35;37.91;101003.65;107595;1256;60601;-84
2023/06/01 06:43:05;;;;;;;;;;;;;;;20.28;38.11;101006.39;107558;1259;123986;-83
2023/06/01 06:45:33;;;;;;;;;;;;;;;20.13;38.39;101003.52;107548;1257;67058;-83
2023/06/01 06:48:00;;;;;;;;;;;;;;;20.05;39.05;101008.95;107732;1256;124219;-83
2023/06/01 06:50:27;;;;;;;;;;;;;;;20.08;39.42;101008.22;107461;1259;60466;-85
2023/06/01 06:52:54;;;;;;;;;;;;;;;20.13;39.48;101010.64;107326;1258;125757;-84
2023/06/01 06:55:22;;;;;;;;;;;;;;;20.08;39.37;101008.38;107463;1258;73849;-85
2023/06/01 06:57:49;;;;;;;;;;;;;;;20.00;39.34;101010.60;107679;1257;66395;-84
2023/06/01 07:00:17;;;;;;;;;;;;;;;19.93;39.55;101009.24;107635;1260;126330;-84
2023/06/01 07:02:45;;;;;;;;;;;;;;;19.89;39.88;101011.06;107861;1257;60459;-84
2023/06/01 07:05:12;;;;;;;;;;;;;;;19.94;40.16;101014.93;107615;1257;125303;-83
2023/06/01 07:07:40;;;;;;;;;;;;;;;19.99;40.22;101010.80;107607;1257;74713;-85
2023/06/01 07:10:07;;;;;;;;;;;;;;;20.02;40.06;101010.05;107784;1257;66817;-84
2023/06/01 07:12:34;;;;;;;;;;;;;;;19.95;39.96;101012.45;107813;1257;124580;-84
2023/06/01 07:15:01;;;;;;;;;;;;;;;19.85;39.91;101007.20;107986;1257;60313;-84
2023/06/01 07:17:28;;;;;;;;;;;;;;;19.81;39.98;101010.60;107742;1260;124187;-84
2023/06/01 07:19:55;;;;;;;;;;;;;;;19.76;40.04;101010.66;107689;1255;73672;-84
2023/06/01 07:22:22;;;;;;;;;;;;;;;19.70;39.99;101010.67;107799;1255;68643;-84
2023/06/01 07:24:49;;;;;;;;;;;;;;;19.63;40.08;101008.76;107728;1259;124420;-85
2023/06/01 07:27:16;;;;;;;;;;;;;;;19.62;40.33;101011.62;108019;1260;59459;-85
2023/06/01 07:29:44;;;;;;;;;;;;;;;19.61;40.41;101010.38;107944;1257;125622;-84
2023/06/01 07:32:11;;;;;;;;;;;;;;;19.61;40.63;101002.38;107906;1260;72529;-85
2023/06/01 07:34:38;;;;;;;;;;;;;;;19.69;40.74;100999.09;107729;1256;66328;-84
2023/06/01 07:37:05;;;;;;;;;;;;;;;19.75;40.91;100996.60;107778;1257;124437;-85
2023/06/01 07:39:34;;;;;;;;;;;;;;;19.83;41.00;101000.07;107655;1257;58698;-84
2023/06/01 07:42:01;;;;;;;;;;;;;;;19.89;40.89;101003.95;107644;1257;125069;-84
2023/06/01 07:44:28;;;;;;;;;;;;;;;19.95;40.67;101004.42;108030;1256;73719;-84
2023/06/01 07:46:55;;;;;;;;;;;;;;;19.96;40.56;101011.52;107954;1257;124635;-83
2023/06/01 07:49:22;;;;;;;;;;;;;;;19.93;40.66;101010.50;107769;1257;73239;-84
2023/06/01 07:51:51;;;;;;;;;;;;;;;19.90;40.72;101012.48;107660;1257;60288;-84
2023/06/01 07:54:18;;;;;;;;;;;;;;;19.75;40.82;101008.34;107650;1258;124785;-84
2023/06/01 07:56:47;;;;;;;;;;;;;;;19.71;41.11;101007.28;107702;1256;74181;-84
2023/06/01 07:59:14;;;;;;;;;;;;;;;19.77;41.49;101005.65;107485;1260;125188;-84
2023/06/01 08:01:41;;;;;;;;;;;;;;;19.90;41.35;101005.89;107580;1261;73723;-84
2023/06/01 08:04:08;;;;;;;;;;;;;;;19.92;41.14;101011.75;107878;1259;60492;-84
2023/06/01 08:06:38;;;;;;;;;;;;;;;19.88;41.15;101010.73;108622;1259;123570;-84
2023/06/01 08:09:05;;;;;;;;;;;;;;;19.87;41.26;101008.94;108994;1255;72430;-84
2023/06/01 08:11:32;;;;;;;;;;;;;;;19.91;41.36;101007.49;108731;1257;126489;-84
2023/06/01 08:14:07;;;;;;;;;;;;;;;19.99;41.55;101005.98;108858;1257;70615;-84
2023/06/01 08:16:34;;;;;;;;;;;;;;;20.09;41.61;101007.14;108988;1256;58552;-84
2023/06/01 08:19:01;;;;;;;;;;;;;;;20.16;41.55;101004.56;108729;1256;124428;-84
2023/06/01 08:21:28;;;;;;;;;;;;;;;20.25;41.50;101010.35;108795;1257;74389;-84
2023/06/01 08:23:55;;;;;;;;;;;;;;;20.30;41.45;101005.30;108590;1256;124125;-84
2023/06/01 08:26:22;;;;;;;;;;;;;;;20.32;41.47;101002.24;108736;1257;71222;-84
2023/06/01 08:28:52;;;;;;;;;;;;;;;20.36;41.39;101003.64;108803;1257;58273;-84
2023/06/01 08:31:20;;;;;;;;;;;;;;;20.35;41.31;100997.76;108980;1256;60516;-84
2023/06/01 08:33:47;;;;;;;;;;;;;;;20.38;41.49;100997.73;108816;1257;73602;-84
2023/06/01 08:36:14;;;;;;;;;;;;;;;20.48;41.55;100996.71;108736;1256;124065;-85
2023/06/01 08:38:41;;;;;;;;;;;;;;;20.57;41.45;101002.50;108811;1257;70104;-84
2023/06/01 08:41:15;;;;;;;;;;;;;;;20.57;41.28;101001.77;108709;1257;124647;-84
2023/06/01 08:43:41;;;;;;;;;;;;;;;20.57;41.30;101003.55;108828;1256;58828;-84
2023/06/01 08:46:08;;;;;;;;;;;;;;;20.51;41.13;101004.54;108839;1257;74258;-85
2023/06/01 08:48:35;;;;;;;;;;;;;;;20.47;41.33;100998.34;108879;1257;125189;-84
2023/06/01 08:51:02;;;;;;;;;;;;;;;20.55;41.50;101000.91;108769;1257;72380;-84
2023/06/01 08:53:30;;;;;;;;;;;;;;;20.65;41.43;100994.23;108704;1256;124203;-85
2023/06/01 08:55:57;;;;;;;;;;;;;;;20.71;41.32;100995.39;108940;1256;58735;-84
2023/06/01 08:58:27;;;;;;;;;;;;;;;20.71;40.76;100994.15;108853;1259;73625;-84
2023/06/01 09:01:03;;;;;;;;;;;;;;;20.65;40.87;100991.38;108808;1257;124465;-84
2023/06/01 09:03:50;;;;;;;;;;;;;;;20.62;41.01;100990.88;108977;1256;71750;-85
2023/06/01 09:06:17;;;;;;;;;;;;;;;20.57;41.11;100990.54;108868;1256;124456;-85
2023/06/01 09:08:44;;;;;;;;;;;;;;;20.52;41.19;100989.36;109015;1256;59862;-85
2023/06/01 09:11:11;;;;;;;;;;;;;;;20.55;41.22;100988.25;108644;1256;125270;-85
2023/06/01 09:13:39;;;;;;;;;;;;;;;20.67;41.35;100990.28;108893;1256;67659;-85
2023/06/01 09:16:07;;;;;;;;;;;;;;;20.78;41.14;100991.20;108814;1262;73291;-85
2023/06/01 09:18:34;;;;;;;;;;;;;;;20.87;41.05;100987.86;108747;1256;124155;-85
2023/06/01 09:21:11;;;;;;;;;;;;;;;20.91;40.79;100982.47;108869;1257;60613;-84
2023/06/01 09:23:38;;;;;;;;;;;;;;;20.92;40.88;100981.02;108668;1257;125319;-85
2023/06/01 09:26:06;;;;;;;;;;;;;;;21.04;40.82;100981.57;108948;1272;66577;-85
2023/06/01 09:28:52;;;;;;;;;;;;;;;21.08;40.66;100985.26;108836;1257;74316;-85
2023/06/01 09:31:40;;;;;;;;;;;;;;;21.07;40.49;100982.60;108903;1256;123933;-85
2023/06/01 09:34:08;;;;;;;;;;;;;;;21.09;40.48;100983.09;108945;1256;59847;-85
2023/06/01 09:36:35;;;;;;;;;;;;;;;21.12;40.33;100978.95;108860;1257;124605;-84
2023/06/01 09:39:06;;;;;;;;;;;;;;;21.13;40.41;100975.72;108792;1257;66401;-85
2023/06/01 09:41:46;;;;;;;;;;;;;;;21.21;40.48;100973.83;108712;1257;124915;-84
2023/06/01 09:44:13;;;;;;;;;;;;;;;21.25;40.18;100975.38;108903;1257;58781;-85
2023/06/01 09:46:47;;;;;;;;;;;;;;;21.20;40.35;100977.41;108838;1257;59005;-85
2023/06/01 09:49:21;;;;;;;;;;;;;;;21.24;40.27;100969.86;108717;1257;124897;-85
2023/06/01 09:51:48;;;;;;;;;;;;;;;21.33;40.19;100968.82;108793;1257;67086;-84
2023/06/01 09:54:25;;;;;;;;;;;;;;;21.40;40.18;100973.89;108791;1256;124917;-85
2023/06/01 09:56:53;;;;;;;;;;;;;;;21.44;39.98;100970.98;108771;1259;58622;-84
2023/06/01 09:59:21;;;;;;;;;;;;;;;21.44;39.94;100968.46;108722;1257;126035;-84
2023/06/01 10:01:52;;;;;;;;;;;;;;;21.44;39.88;100968.30;108956;1260;72692;-85
2023/06/01 10:04:20;;;;;;;;;;;;;;;21.47;40.03;100973.27;108864;1257;66868;-84
2023/06/01 10:06:47;;;;;;;;;;;;;;;21.47;39.91;100972.73;108680;1257;126649;-84
2023/06/01 10:09:18;;;;;;;;;;;;;;;21.48;40.08;100975.91;108967;1256;59469;-85
2023/06/01 10:11:45;;;;;;;;;;;;;;;21.57;40.16;100967.02;108762;1257;124854;-85
2023/06/01 10:14:12;;;;;;;;;;;;;;;21.71;40.23;100966.61;108899;1257;74703;-85
2023/06/01 10:16:41;;;;;;;;;;;;;;;21.86;40.03;100970.44;108830;1256;66336;-85
2023/06/01 10:19:12;;;;;;;;;;;;;;;21.95;40.07;100963.14;108666;1259;124482;-84
2023/06/01 10:21:39;;;;;;;;;;;;;;;22.06;39.90;100957.05;108906;1256;58578;-85
2023/06/01 10:24:07;;;;;;;;;;;;;;;22.21;39.70;100957.29;108756;1256;126557;-84
2023/06/01 10:26:35;;;;;;;;;;;;;;;22.30;39.41;100955.33;108870;1257;73256;-85
2023/06/01 10:29:02;;;;;;;;;;;;;;;22.33;39.33;100957.95;108875;1256;66902;-86
2023/06/01 10:31:42;;;;;;;;;;;;;;;22.19;38.78;100963.92;108882;1257;73550;-85
2023/06/01 10:34:10;;;;;;;;;;;;;;;21.99;38.98;100960.73;108865;1255;58644;-85
2023/06/01 10:36:52;;;;;;;;;;;;;;;21.89;38.97;100957.52;108713;1271;124809;-84
2023/06/01 10:39:25;;;;;;;;;;;;;;;21.88;39.20;100958.79;108855;1257;73662;-84
2023/06/01 10:41:55;;;;;;;;;;;;;;;22.03;39.46;100956.19;108760;1257;124333;-84
2023/06/01 10:44:40;;;;;;;;;;;;;;;22.29;39.60;100954.81;108823;1256;72880;-84
2023/06/01 10:47:11;;;;;;;;;;;;;;;22.65;39.39;100950.65;108802;1257;125037;-83
2023/06/01 10:49:47;;;;;;;;;;;;;;;22.97;39.23;100945.84;109046;1256;59518;-84
2023/06/01 10:52:27;;;;;;;;;;;;;;;23.23;39.04;100956.35;108874;1257;72553;-84
2023/06/01 10:54:55;;;;;;;;;;;;;;;23.39;38.54;100957.02;108822;1259;124399;-84
2023/06/01 10:57:22;;;;;;;;;;;;;;;23.43;38.34;100954.60;108723;1259;73570;-84
2023/06/01 11:00:09;;;;;;;;;;;;;;;23.57;38.35;100961.61;108765;1256;124687;-84
2023/06/01 11:02:51;;;;;;;;;;;;;;;23.70;38.02;100957.65;109011;1256;58819;-84
2023/06/01 11:05:37;;;;;;;;;;;;;;;23.86;37.72;100960.34;108887;1257;124853;-84
2023/06/01 11:08:05;;;;;;;;;;;;;;;24.08;37.73;100955.98;109076;1256;66338;-84
2023/06/01 11:11:02;;;;;;;;;;;;;;;24.46;37.63;100951.31;108980;1257;72633;-84
2023/06/01 11:13:39;;;;;;;;;;;;;;;24.92;37.54;100952.11;108714;1257;124757;-85
2023/06/01 11:18:46;;;;;;;;;;;;;;;25.07;36.71;100962.06;108890;1256;123956;-84
2023/06/01 11:21:17;;;;;;;;;;;;;;;25.09;36.47;100963.23;108869;1256;65511;-84
2023/06/01 11:23:45;;;;;;;;;;;;;;;25.02;36.54;100963.80;108806;1256;125414;-84
2023/06/01 11:26:16;;;;;;;;;;;;;;;25.06;36.51;100963.33;108883;1257;58623;-84
2023/06/01 11:28:43;;;;;;;;;;;;;;;25.14;36.44;100968.98;109102;1255;58311;-84
2023/06/01 11:31:11;;;;;;;;;;;;;;;25.23;36.40;100972.67;108710;1257;124095;-84
2023/06/01 11:34:07;;;;;;;;;;;;;;;25.27;36.25;100973.83;108888;1257;65438;-84
2023/06/01 11:36:38;;;;;;;;;;;;;;;25.34;36.19;100969.28;108669;1257;124480;-84
2023/06/01 11:39:28;;;;;;;;;;;;;;;25.46;36.19;100969.96;108719;1256;58532;-86
2023/06/01 11:42:10;;;;;;;;;;;;;;;25.59;36.21;100971.52;108595;1257;124009;-85
2023/06/01 11:44:41;;;;;;;;;;;;;;;25.63;35.82;100968.50;108952;1256;72955;-84
2023/06/01 11:47:14;;;;;;;;;;;;;;;25.59;35.85;100972.58;108839;1255;68822;-84
2023/06/01 11:49:44;;;;;;;;;;;;;;;25.46;35.63;100975.00;108825;1256;71355;-84
2023/06/01 11:52:15;;;;;;;;;;;;;;;25.13;35.64;100974.43;108746;1256;59440;-84
2023/06/01 11:54:54;;;;;;;;;;;;;;;24.83;35.84;100976.98;108773;1257;124643;-85
2023/06/01 11:58:08;;;;;;;;;;;;;;;;;;;;;
2023/06/01 12:00:55;;;;;;;;;;;;;;;24.49;36.24;100975.83;108718;1257;124128;-85
2023/06/01 12:03:34;;;;;;;;;;;;;;;24.41;36.24;100969.38;108984;1257;73322;-84
2023/06/01 12:06:02;;;;;;;;;;;;;;;24.31;36.44;100971.83;108669;1256;124264;-85
2023/06/01 12:08:54;;;;;;;;;;;;;;;24.22;36.64;100967.95;109009;1255;59225;-85
2023/06/01 12:11:29;;;;;;;;;;;;;;;24.24;36.59;100973.81;108819;1257;124180;-85
2023/06/01 12:13:57;;;;;;;;;;;;;;;24.31;36.80;100975.77;108881;1260;67084;-85
2023/06/01 12:16:30;;;;;;;;;;;;;;;24.42;36.75;100975.45;108844;1257;72587;-84
2023/06/01 12:19:12;;;;;;;;;;;;;;;24.26;36.68;100972.51;108683;1256;124888;-84
2023/06/01 12:21:57;;;;;;;;;;;;;;;23.86;36.53;100984.87;108869;1257;59254;-84
2023/06/01 12:24:30;;;;;;;;;;;;;;;23.64;37.47;100980.93;108838;1257;124203;-84
2023/06/01 12:27:02;;;;;;;;;;;;;;;23.77;37.32;100981.85;108956;1256;66853;-84
2023/06/01 12:29:36;;;;;;;;;;;;;;;23.73;37.36;100978.38;108708;1256;125437;-84
2023/06/01 12:32:14;;;;;;;;;;;;;;;23.77;37.48;100977.73;108879;1256;59357;-83
2023/06/01 12:34:48;;;;;;;;;;;;;;;23.84;37.66;100972.77;108782;1257;60052;-84
2023/06/01 12:37:17;;;;;;;;;;;;;;;24.02;37.69;100973.70;108655;1259;124650;-84
2023/06/01 12:39:52;;;;;;;;;;;;;;;23.98;37.32;100975.06;108873;1257;66367;-84